Cristiano Rangel

Olheiro - Atlético Mineiro
20 Jan 2028
Quinta-feira
Processo

Personalidade

Adaptabilidade (1) Ambição (9) Controvérsia (12) Lealdade (19) Pressão (18) Profissionalismo (9) Espírito Esportivo (1) Temperamento (3)

Perfil

Estilo de Treinamento Democrático
Licença Continental B
Determinação 15
Gestão de Pessoas 14
Motivação 11
Disciplina 10
Satisfação no Trabalho
100%
Fadiga
0%
Função Olheiro
Salário 31.6K p/s
Contrato 14.03.2030

Desempenho

Comportamento Bom
Eficácia do Treinamento
52%
Desenvolvimento do Jogador
65%
Prevenção de Lesões
40%
Implementação Tática
65%

Eventos Recentes

Participando de desenvolvimento profissional agora
Participou de uma reunião de recrutamento agora
Avaliou um jogador 7d atrás
Participou de uma reunião de recrutamento 7d atrás
Avaliou um jogador 7d atrás
Avaliou um jogador 7d atrás
Participando de desenvolvimento profissional 7d atrás
Participando de desenvolvimento profissional 7d atrás

Monitorando agora

215
Jogador Clube Status Habilidade Confiança Observado Última observação Último voto
Luciano Cosentino Wanderers Ativo 120 / 121 40% 2 14.01.2028 -
Fábio Carvalho Sheffield Wednesday Ativo 147 / 135 40% 3 14.01.2028 -
Rafael Navarro St. Louis CITY SC Ativo 124 / 126 40% 1 14.01.2028 -
Ez Abde Girona Ativo 150 / 162 40% 2 12.01.2028 -
Dango Ouattara Brentford Ativo 156 / 146 40% 2 12.01.2028 -
Facundo Krüger FK Senica Ativo 123 / 126 40% 1 10.01.2028 -
Brennan Johnson Stoke City Ativo 145 / 158 40% 1 09.01.2028 -
Luca Martínez Dupuy Godoy Cruz Ativo 129 / 120 40% 1 09.01.2028 -
Bénie Traoré New York City Ativo 134 / 126 40% 1 08.01.2028 -
Fabri Vitória Ativo 116 / 124 40% 1 08.01.2028 -
Luca Langoni Colorado Rapids Ativo 137 / 128 40% 1 06.01.2028 -
Armindo Sieb Los Angeles Football Club Ativo 129 / 120 40% 1 06.01.2028 -
Matheus Nascimento FC Dallas Ativo 120 / 124 40% 1 04.01.2028 -
Alejo Cruz Juventud Ativo 120 / 118 40% 1 04.01.2028 -
Louis Munteanu DC United Ativo 129 / 133 40% 1 04.01.2028 -
Edu Vitória Perdido 128 / 121 72% 1 20.12.2027 Aprovar
Matheuzinho Vitória Ativo 124 / 120 40% 1 30.11.2027 -
Ferreirinha Sport Recife Ativo 139 / 129 40% 1 30.11.2027 -
Andrés Gómez Vasco da Gama Ativo 135 / 133 40% 1 30.11.2027 -
Pablo Felipe West Ham United Ativo 133 / 146 40% 1 20.07.2027 -
Leo Castledine Middlesbrough Ativo 139 / 144 40% 1 20.07.2027 -
Tom Cannon Sheffield United Ativo 142 / 144 40% 1 20.07.2027 -
Christ Inao Oulaï Fiorentina Ativo 143 / 135 40% 1 28.06.2027 -
Matías Gómez Granada Ativo 122 / 124 40% 1 28.06.2027 -
Jan Bürger Gillingham Ativo 121 / 122 40% 1 28.06.2027 -
Zaïd BafdilI Sporting CP Ativo 83 / 99 40% 1 21.06.2027 -
Jofre Torrents Ajax Ativo 130 / 125 40% 1 21.06.2027 -
Johan Manzambi Newcastle United Ativo 133 / 139 40% 1 21.06.2027 -
Riley Owen Trento Ativo 102 / 97 40% 1 14.06.2027 -
Percy Jali Free State Stars Ativo 101 / 99 40% 1 14.06.2027 -
Caleb Yirenkyi Coventry City Ativo 130 / 132 40% 1 14.06.2027 -
James Trafford Leeds United Ativo 139 / 139 40% 4 31.05.2027 -
Mykyta Turbaievskyi Zorya Ativo 110 / 102 40% 1 31.05.2027 -
Radek Vítek Middlesbrough Ativo 130 / 137 40% 7 29.05.2027 -
Manuel Baldé Asante Kotoko Ativo 97 / 115 40% 2 29.05.2027 -
Beau Reus Waasland-Beveren Ativo 135 / 128 40% 5 28.05.2027 -
Robin Roefs Sunderland Ativo 147 / 145 40% 8 27.05.2027 -
Tyler Adams Bournemouth Ativo 155 / 160 40% 4 27.05.2027 -
Amadou Onana Aston Villa Ativo 150 / 157 40% 5 27.05.2027 -
Xaver Schlager Nottingham Forest Ativo 156 / 142 40% 1 27.05.2027 -
Óscar Mingueza Crystal Palace Ativo 148 / 155 40% 8 26.05.2027 -
Milan van Ewijk Mansfield Town Ativo 127 / 134 40% 4 24.05.2027 -
Shea Charles Southampton Ativo 139 / 138 40% 3 24.05.2027 -
Nico González Newcastle United Ativo 155 / 163 40% 3 24.05.2027 -
Jan Paul van Hecke Tottenham Ativo 167 / 156 40% 4 24.05.2027 -
Nicolas Madsen Queens Park Rangers Ativo 130 / 126 40% 1 24.05.2027 -
Edoardo Motta Lazio Ativo 133 / 120 40% 4 23.05.2027 -
Tomáš Frühwald Bohemians 1905 Ativo 107 / 114 40% 1 23.05.2027 -
Ethan Galbraith Swansea City Ativo 130 / 140 40% 8 22.05.2027 -
Anton Stach Leeds United Ativo 140 / 141 40% 4 22.05.2027 -
Florentino Luís Ipswich Town Ativo 139 / 144 40% 4 21.05.2027 -
Welington Southampton Ativo 124 / 136 40% 7 21.05.2027 -
Luke McNally Bristol City Ativo 137 / 123 40% 1 21.05.2027 -
Michael Cooper Sheffield United Ativo 124 / 131 40% 7 19.05.2027 -
Thomas De Bruyne Mouscron Ativo 132 / 122 40% 5 19.05.2027 -
Curtis Jones Inter Ativo 156 / 161 40% 1 19.05.2027 -
Sven Botman Newcastle United Ativo 156 / 160 40% 1 17.05.2027 -
Saša Lukić Ipswich Town Ativo 136 / 152 40% 2 14.05.2027 -
Lorenzo Di Stefano Torres Ativo 104 / 99 40% 1 14.05.2027 -
Nicolò Tresoldi Club Brugge Ativo 142 / 145 40% 1 14.05.2027 -
Micky van de Ven Tottenham Ativo 162 / 148 40% 1 13.05.2027 -
Igor Burnley Ativo 135 / 135 40% 1 12.05.2027 -
Mats Wieffer Brighton Ativo 141 / 142 40% 1 10.05.2027 -
Leo Kokubo Sint-Truiden Ativo 110 / 111 40% 1 09.05.2027 -
Yehor Yarmoliuk Brentford Ativo 154 / 145 40% 3 06.05.2027 -
Bento Al-Nassr Ativo 130 / 125 40% 5 05.05.2027 -
Adam Wharton Crystal Palace Ativo 157 / 158 40% 2 05.05.2027 -
Adrien Truffert Bournemouth Ativo 144 / 159 40% 2 05.05.2027 -
Ryan Sessegnon Fulham Ativo 145 / 151 40% 1 02.05.2027 -
Maduka Okoye Udinese Ativo 148 / 129 40% 2 01.05.2027 -
Nuno Tavares Lazio Ativo 158 / 146 40% 1 30.04.2027 -
Ainsley Maitland-Niles Everton Ativo 131 / 128 40% 1 29.04.2027 -
Ousmane Diomande Nottingham Forest Ativo 150 / 153 40% 1 29.04.2027 -
Samu Maccabi Netanya Ativo 112 / 112 40% 2 26.04.2027 -
João Palhinha Benfica Ativo 158 / 147 40% 6 24.04.2027 -
Max Bird Birmingham Ativo 123 / 128 40% 4 24.04.2027 -
Jan Bednarek Porto Ativo 142 / 144 40% 4 24.04.2027 -
Tomás Araújo Benfica Ativo 154 / 140 40% 8 23.04.2027 -
Jordan Holsgrove Estoril Praia Ativo 135 / 120 40% 7 23.04.2027 -
João Gonçalves Felgueiras Ativo 116 / 126 40% 5 22.04.2027 -
Deniz Ertaş Konyaspor Ativo 131 / 112 40% 1 22.04.2027 -
Alberto Costa Porto Ativo 138 / 152 40% 10 20.04.2027 -
Cezary Miszta Rio Ave Ativo 132 / 134 40% 10 17.04.2027 -
Renato Sanches AVS Ativo 133 / 141 40% 4 17.04.2027 -
Antonio Gomis Vizela Ativo 118 / 127 40% 3 16.04.2027 -
Francisco Meixedo Feirense Ativo 106 / 122 40% 3 16.04.2027 -
Gustaf Lagerbielke Braga Ativo 129 / 146 40% 4 13.04.2027 -
Sergi Altimira Sporting CP Ativo 147 / 135 40% 6 13.04.2027 -
Jesús Angulo Tigres Ativo 142 / 136 40% 4 13.04.2027 -
Iván Fresneda Sporting CP Ativo 133 / 135 40% 9 11.04.2027 -
Francisco Moura Lusitânia Lourosa Ativo 133 / 146 40% 4 11.04.2027 -
Leif Davis Ipswich Town Ativo 131 / 133 40% 1 11.04.2027 -
Hwang In-Beom Porto Ativo 140 / 132 40% 13 09.04.2027 -
Erick Reyes Toluca Ativo 142 / 143 40% 5 09.04.2027 -
Neneca Santa Clara Ativo 93 / 111 40% 2 09.04.2027 -
Kyle Walker-Peters West Ham United Ativo 131 / 127 40% 3 09.04.2027 -
Javi Sánchez Arouca Ativo 122 / 130 40% 6 07.04.2027 -
Soungoutou Magassa West Ham United Ativo 142 / 133 40% 2 07.04.2027 -
Gonçalo Inácio Sporting CP Ativo 158 / 142 40% 10 06.04.2027 -
Alan Varela Porto Ativo 144 / 148 40% 5 04.04.2027 -
Mathias De Amorim Famalicao Ativo 132 / 123 40% 3 04.04.2027 -
André Wolverhampton Ativo 138 / 138 40% 1 04.04.2027 -
Víctor Gómez Braga Ativo 145 / 131 40% 9 03.04.2027 -
Sikou Niakaté Braga Ativo 133 / 131 40% 7 01.04.2027 -
Jesús Orozco Chiquete Cruz Azul Ativo 135 / 125 40% 1 30.03.2027 -
Edoardo Bove Watford Ativo 127 / 133 40% 1 29.03.2027 -
Yehvann Diouf OGC Nice Ativo 149 / 154 40% 4 28.03.2027 -
Zach Hemming Chesterfield Ativo 111 / 103 40% 2 28.03.2027 -
Dara O'Shea Ipswich Town Ativo 127 / 131 40% 4 25.03.2027 -
Jonathan Fischer FC Metz Ativo 125 / 137 40% 1 25.03.2027 -
Anel Ahmedhodžić Burnley Ativo 145 / 144 40% 4 24.03.2027 -
Murphy Cooper Plymouth Argyle Ativo 109 / 110 40% 1 23.03.2027 -
Jacques Ekomié Wrexham Ativo 129 / 138 40% 1 22.03.2027 -
Richard Ledezma Guadalajara Ativo 138 / 136 40% 2 20.03.2027 -
Leon Goretzka Aston Villa Ativo 160 / 156 40% 7 18.03.2027 -
Jesús Gallardo Toluca Ativo 143 / 137 40% 1 18.03.2027 -
Gonzalo Piovi Cruz Azul Ativo 132 / 128 40% 4 16.03.2027 -
Nahuel Tenaglia Tigres Ativo 137 / 127 40% 1 15.03.2027 -
João Valido Chaves Ativo 115 / 116 40% 1 13.03.2027 -
Alfonso Pastor Maritimo Ativo 119 / 120 40% 1 13.03.2027 -
Pablo Rosario Porto Ativo 130 / 138 40% 2 11.03.2027 -
Bradley Mabunda SuperSport United Ativo 117 / 125 40% 1 10.03.2027 -
Luís Esteves Atlas Ativo 132 / 124 40% 5 08.03.2027 -
Christian Krasnodar Ativo 132 / 134 40% 6 28.02.2027 -
Adonis Frías Atlas Ativo 134 / 123 40% 2 28.02.2027 -
Ilay Camara Anderlecht Ativo 139 / 141 40% 2 25.02.2027 -
Lukas Jensen Millwall Ativo 113 / 109 40% 3 23.02.2027 -
Kenny Tete Fulham Ativo 142 / 155 40% 2 23.02.2027 -
Christian Joel Sánchez Leiria Ativo 109 / 112 40% 1 19.02.2027 -
Dinis Pinto Moreirense Ativo 137 / 123 40% 2 18.02.2027 -
Nordi Mukiele Sunderland Ativo 141 / 150 40% 1 18.02.2027 -
Vitinho Botafogo Ativo 134 / 140 40% 1 12.02.2027 -
Bilal Bayazıt Kayserispor Ativo 117 / 120 40% 1 11.02.2027 -
Patrick Sequeira Casa Pia Ativo 123 / 131 40% 5 10.02.2027 -
Lazar Carević Famalicao Ativo 125 / 137 40% 3 10.02.2027 -
Mads Hermansen West Ham United Ativo 139 / 150 40% 3 08.02.2027 -
Matheuzinho Corinthians Ativo 135 / 118 40% 3 24.01.2027 -
João Simões Sporting CP Ativo 123 / 126 40% 1 23.01.2027 -
Victor Froholdt Porto Ativo 146 / 163 40% 1 21.01.2027 -
Guilherme Arana Fluminense Ativo 140 / 146 40% 1 18.01.2027 -
Juan Ignacio Nardoni Grêmio Ativo 135 / 124 40% 2 13.01.2027 -
Juan Pablo Freytes Fluminense Ativo 134 / 130 40% 3 12.01.2027 -
Bruno Gomes Internacional Ativo 132 / 141 40% 2 12.01.2027 -
Gerardo Arteaga Monterrey Ativo 136 / 128 40% 1 12.01.2027 -
Luis Romo Guadalajara Ativo 142 / 145 40% 2 11.01.2027 -
Andrew Robertson Tottenham Ativo 151 / 162 40% 1 11.01.2027 -
Enzo Díaz Sport Recife Ativo 125 / 132 40% 1 27.12.2026 -
Callum Doyle Wrexham Ativo 138 / 123 40% 1 23.12.2026 -
Leandro Barreiro Benfica Ativo 139 / 137 40% 3 22.12.2026 -
Gustavo Silva Vitoria Guimaraes Ativo 125 / 135 40% 2 01.12.2026 -
Toni Tamarit Alverca Ativo 118 / 108 40% 1 01.12.2026 -
Petar Musa Adana Demirspor Ativo 141 / 122 40% 4 29.11.2026 -
Soufiane Rahimi Guadalajara Ativo 136 / 143 40% 2 29.11.2026 -
Steven Bergwijn Al-Ittihad Ativo 138 / 143 40% 2 29.11.2026 -
Luis Ingolotti Atlético Tucumán Ativo 127 / 125 40% 3 27.11.2026 -
Diego Rossi Monterrey Ativo 142 / 134 40% 1 26.11.2026 -
Vitor Carvalho Braga Ativo 137 / 122 40% 1 24.11.2026 -
Lucas Piton Vasco da Gama Ativo 126 / 125 40% 1 24.11.2026 -
Rodrigo Castillo Fluminense Ativo 132 / 119 40% 2 21.11.2026 -
Barış Alper Yılmaz Galatasaray Ativo 150 / 140 40% 2 21.11.2026 -
Randal Kolo Muani Juventus Ativo 149 / 137 40% 2 21.11.2026 -
Ozziel Herrera Tigres Ativo 124 / 134 40% 1 21.11.2026 -
Pau Víctor AVS Ativo 142 / 127 40% 1 19.11.2026 -
Danilo Botafogo Ativo 130 / 145 40% 1 18.11.2026 -
Dodi Lukébakio Benfica Ativo 155 / 154 40% 5 16.11.2026 -
Brian Brobbey Sunderland Ativo 136 / 145 40% 5 16.11.2026 -
Hugo Souza Corinthians Ativo 131 / 137 40% 4 15.11.2026 -
Mateo Pellegrino Fiorentina Ativo 136 / 140 40% 3 13.11.2026 -
Léo Ortiz Flamengo Ativo 137 / 149 40% 1 13.11.2026 -
Bernardo Fontes Braga Ativo 125 / 136 40% 2 12.11.2026 -
Kerem Aktürkoğlu Fenerbahce Ativo 141 / 138 40% 1 10.11.2026 -
Joaquín Panichelli Le Havre AC Ativo 134 / 135 40% 1 10.11.2026 -
Nicolás Sumavil Platense Ativo 112 / 112 40% 1 09.11.2026 -
Grégoire Coudert Burnley Ativo 118 / 128 40% 2 06.11.2026 -
Gabriel Jesus Barcelona Ativo 162 / 162 40% 2 05.11.2026 -
Eddie Nketiah Crystal Palace Ativo 144 / 146 40% 3 05.11.2026 -
Alexey Miranchuk St. Gallen Ativo 147 / 154 40% 1 02.11.2026 -
Andrea Pinamonti Lazio Ativo 130 / 142 40% 2 01.11.2026 -
Alexander Bah Benfica Ativo 139 / 149 40% 1 30.10.2026 -
Matheus Mendes Alverca Ativo 121 / 115 40% 3 28.10.2026 -
Breel Embolo Atlanta United FC Ativo 134 / 145 40% 4 28.10.2026 -
Che Adams Torino Ativo 148 / 150 40% 2 24.10.2026 -
Thorgan Witsel KV Oostende Ativo 130 / 128 40% 1 24.10.2026 -
Ivan Toney Al-Ahli Ativo 140 / 144 40% 5 21.10.2026 -
Yoan Bonny Inter Ativo 145 / 161 40% 1 19.10.2026 -
Yoane Wissa Newcastle United Ativo 149 / 142 40% 3 18.10.2026 -
Gabriel Veron Porto Ativo 131 / 124 40% 1 17.10.2026 -
Alfonso Trezza Arouca Ativo 118 / 128 40% 2 16.10.2026 -
Kévin Denkey FC Cincinnati Ativo 129 / 121 40% 1 16.10.2026 -
André Lacximicant Estoril Praia Ativo 109 / 116 40% 1 16.10.2026 -
Nicolò Zaniolo Udinese Ativo 134 / 126 40% 3 15.10.2026 -
Ianis Stoica Estrela da Amadora Ativo 117 / 126 40% 1 09.10.2026 -
Eduardo Quaresma Sporting CP Ativo 139 / 151 40% 1 07.10.2026 -
Caio Alexandre Bahia Ativo 139 / 126 40% 1 07.10.2026 -
Vinícius Lopes Santa Clara Ativo 111 / 114 40% 1 07.10.2026 -
Adnan Courtois KV Oostende Ativo 137 / 123 40% 1 02.10.2026 -
Patrick Schulte Columbus Crew Ativo 117 / 120 40% 2 26.09.2026 -
Keisuke Osako Sanfrecce Hiroshima Ativo 146 / 142 40% 1 26.09.2026 -
Fernando Tapia Club America Ativo 127 / 123 40% 1 22.09.2026 -
Andrew Flamengo Ativo 133 / 134 40% 1 17.09.2026 -
Amine Gouiri Olympique de Marseille Ativo 138 / 139 40% 1 15.09.2026 -
Martín Ojeda Orlando City Ativo 136 / 134 40% 1 12.09.2026 -
Caoimhin Kelleher Brentford Ativo 143 / 153 40% 2 08.09.2026 -
Jean-Philippe Mateta Crystal Palace Ativo 139 / 163 40% 2 07.09.2026 -
Noah Okafor Leeds United Ativo 145 / 142 40% 2 03.09.2026 -
Ricardo Horta Braga Ativo 140 / 156 40% 2 23.08.2026 -
Carlos Miguel Palmeiras Ativo 131 / 129 40% 1 19.08.2026 -
Manuel Roffo Cerro Porteno Ativo 127 / 124 40% 1 19.08.2026 -
Youssef En-Nesyri Al-Ittihad Ativo 130 / 146 40% 1 17.08.2026 -
Gonzalo Fulham Ativo 130 / 131 40% 1 15.08.2026 -
Matt Freese New York City Ativo 127 / 135 40% 2 14.08.2026 -
Cucho Hernández Betis Ativo 140 / 145 40% 1 07.08.2026 -
Julen Agirrezabala Racing Santander Ativo 135 / 128 40% 1 06.08.2026 -
Paulinho Palmeiras Ativo 143 / 132 40% 1 03.08.2026 -
Luke Shaw Manchester United Ativo 155 / 161 40% 1 02.08.2026 -